createdAt,value
2017-05-27T00:00:04.443Z,13.25
2017-05-27T00:00:09.188Z,13.25
2017-05-27T00:00:14.480Z,13.25
2017-05-27T00:00:20.078Z,13.25
2017-05-27T00:00:24.175Z,13.25
2017-05-27T00:00:28.704Z,13.25
2017-05-27T00:00:33.135Z,13.24
2017-05-27T00:00:37.563Z,13.24
2017-05-27T00:00:41.991Z,13.25
2017-05-27T00:00:46.417Z,13.25
2017-05-27T00:00:50.610Z,13.25
2017-05-27T00:00:54.691Z,13.24
2017-05-27T00:00:59.010Z,13.25
2017-05-27T00:01:03.301Z,13.24
2017-05-27T00:01:07.492Z,13.24
2017-05-27T00:01:11.683Z,13.24
2017-05-27T00:01:16.104Z,13.24
2017-05-27T00:01:20.296Z,13.25
2017-05-27T00:01:24.621Z,13.25
2017-05-27T00:01:28.824Z,13.25
2017-05-27T00:01:33.251Z,13.23
2017-05-27T00:01:38.135Z,13.24
2017-05-27T00:01:43.175Z,13.24
2017-05-27T00:01:48.091Z,13.24
2017-05-27T00:01:52.915Z,13.24
2017-05-27T00:01:57.171Z,13.24
2017-05-27T00:02:02.120Z,13.25
2017-05-27T00:02:06.959Z,13.24
2017-05-27T00:02:11.672Z,13.24
2017-05-27T00:02:16.117Z,13.24
2017-05-27T00:02:20.348Z,13.24
2017-05-27T00:02:25.341Z,13.23
2017-05-27T00:02:30.625Z,13.23
2017-05-27T00:02:35.130Z,13.24
2017-05-27T00:02:39.984Z,13.23
2017-05-27T00:02:44.945Z,13.24
2017-05-27T00:02:49.618Z,13.23
2017-05-27T00:02:54.481Z,13.22
2017-05-27T00:02:59.547Z,13.24
2017-05-27T00:03:04.371Z,13.23
2017-05-27T00:03:08.581Z,13.23
2017-05-27T00:03:13.223Z,13.23
2017-05-27T00:03:17.968Z,13.23
2017-05-27T00:03:22.874Z,13.23
2017-05-27T00:03:27.556Z,13.23
2017-05-27T00:03:32.478Z,13.23
2017-05-27T00:03:37.485Z,13.23
2017-05-27T00:03:41.854Z,13.23
2017-05-27T00:03:46.370Z,13.23
2017-05-27T00:03:51.311Z,13.23
2017-05-27T00:03:56.185Z,13.23
2017-05-27T00:04:00.886Z,13.23
2017-05-27T00:04:05.764Z,13.22
2017-05-27T00:04:10.226Z,13.22
2017-05-27T00:04:15.534Z,13.22
2017-05-27T00:04:20.390Z,13.23
2017-05-27T00:04:24.792Z,13.23
2017-05-27T00:04:29.547Z,13.23
2017-05-27T00:04:34.172Z,13.23
2017-05-27T00:04:39.312Z,13.21
2017-05-27T00:04:44.359Z,13.22
2017-05-27T00:04:48.832Z,13.22
2017-05-27T00:04:53.865Z,13.21
2017-05-27T00:04:59.974Z,13.22
2017-05-27T00:05:05.081Z,13.21
2017-05-27T00:05:09.469Z,13.22
2017-05-27T00:05:14.136Z,13.21
2017-05-27T00:05:18.738Z,13.22
2017-05-27T00:05:24.088Z,13.22
2017-05-27T00:05:29.071Z,13.22
2017-05-27T00:05:33.943Z,13.2
2017-05-27T00:05:39.705Z,13.2
2017-05-27T00:05:45.053Z,13.2
2017-05-27T00:05:49.512Z,13.21
2017-05-27T00:05:53.826Z,13.2
2017-05-27T00:05:58.803Z,13.2
2017-05-27T00:06:03.708Z,13.2
2017-05-27T00:06:08.024Z,13.19
2017-05-27T00:06:12.517Z,13.18
2017-05-27T00:06:18.250Z,13.18
2017-05-27T00:06:23.793Z,13.18
2017-05-27T00:06:29.351Z,13.17
2017-05-27T00:06:34.006Z,13.17
2017-05-27T00:06:38.583Z,13.16
2017-05-27T00:06:43.954Z,13.16
2017-05-27T00:06:48.392Z,13.16
2017-05-27T00:06:53.084Z,13.15
2017-05-27T00:06:57.762Z,13.14
2017-05-27T00:07:02.746Z,13.13
2017-05-27T00:07:08.187Z,13.13
2017-05-27T00:07:13.558Z,13.13
2017-05-27T00:07:17.947Z,13.12
2017-05-27T00:07:22.248Z,13.12
2017-05-27T00:07:27.694Z,13.11
2017-05-27T00:07:32.323Z,13.11
2017-05-27T00:07:36.988Z,13.11
2017-05-27T00:07:41.988Z,13.1
2017-05-27T00:07:46.514Z,13.1
2017-05-27T00:07:51.067Z,13.1
2017-05-27T00:07:56.442Z,13.08
2017-05-27T00:08:01.189Z,13.09
2017-05-27T00:08:06.199Z,13.09
2017-05-27T00:08:10.541Z,13.08
2017-05-27T00:08:15.142Z,13.07
2017-05-27T00:08:19.955Z,13.07
2017-05-27T00:08:24.102Z,13.08
2017-05-27T00:08:28.826Z,13.07
2017-05-27T00:08:33.415Z,13.06
2017-05-27T00:08:38.172Z,13.07
2017-05-27T00:08:42.537Z,13.06
2017-05-27T00:08:47.360Z,13.05
2017-05-27T00:08:51.940Z,13.05
2017-05-27T00:08:57.149Z,13.05
2017-05-27T00:09:02.682Z,13.05
2017-05-27T00:09:07.438Z,13.04
2017-05-27T00:09:12.193Z,13.04
2017-05-27T00:09:17.204Z,13.04
2017-05-27T00:09:21.328Z,13.03
2017-05-27T00:09:26.824Z,13.03
2017-05-27T00:09:31.614Z,13.03
2017-05-27T00:09:37.010Z,13.02
2017-05-27T00:09:42.590Z,13.02
2017-05-27T00:09:47.886Z,13.02
2017-05-27T00:09:53.296Z,13.01
2017-05-27T00:09:58.126Z,13.01
2017-05-27T00:10:03.548Z,13.01
2017-05-27T00:10:07.998Z,13
2017-05-27T00:10:12.401Z,13
2017-05-27T00:10:16.707Z,13
2017-05-27T00:10:21.028Z,12.99
2017-05-27T00:10:26.184Z,12.98
2017-05-27T00:10:31.114Z,12.98
2017-05-27T00:10:36.045Z,12.97
2017-05-27T00:10:41.694Z,12.97
2017-05-27T00:10:47.434Z,12.97
2017-05-27T00:10:52.322Z,12.96
2017-05-27T00:10:57.191Z,12.97
2017-05-27T00:11:02.471Z,12.96
2017-05-27T00:11:07.734Z,12.94
2017-05-27T00:11:12.799Z,12.95
2017-05-27T00:11:17.948Z,12.95
2017-05-27T00:11:22.651Z,12.93
2017-05-27T00:11:27.235Z,12.93
2017-05-27T00:11:31.977Z,12.93
2017-05-27T00:11:36.367Z,12.93
2017-05-27T00:11:41.722Z,12.92
2017-05-27T00:11:46.157Z,12.92
2017-05-27T00:11:50.593Z,12.91
2017-05-27T00:11:54.799Z,12.91
2017-05-27T00:11:59.019Z,12.9
2017-05-27T00:12:03.845Z,12.9
2017-05-27T00:12:08.592Z,12.9
2017-05-27T00:12:13.975Z,12.89
2017-05-27T00:12:19.520Z,12.89
2017-05-27T00:12:24.302Z,12.88
2017-05-27T00:12:28.645Z,12.88
2017-05-27T00:12:34.281Z,12.88
2017-05-27T00:12:39.314Z,12.87
2017-05-27T00:12:44.414Z,12.86
2017-05-27T00:12:49.191Z,12.87
2017-05-27T00:12:54.211Z,12.86
2017-05-27T00:13:00.101Z,12.86
2017-05-27T00:13:04.629Z,12.85
2017-05-27T00:13:10.518Z,12.85
2017-05-27T00:13:15.746Z,12.84
2017-05-27T00:13:21.390Z,12.84
2017-05-27T00:13:26.024Z,12.84
2017-05-27T00:13:30.525Z,12.84
2017-05-27T00:13:35.867Z,12.84
2017-05-27T00:13:40.919Z,12.83
2017-05-27T00:13:45.483Z,12.82
2017-05-27T00:13:50.268Z,12.82
2017-05-27T00:13:55.072Z,12.83
2017-05-27T00:14:00.593Z,12.82
2017-05-27T00:14:05.315Z,12.82
2017-05-27T00:14:10.445Z,12.82
2017-05-27T00:14:15.987Z,12.81
2017-05-27T00:14:20.609Z,12.81
2017-05-27T00:14:26.488Z,12.81
2017-05-27T00:14:31.093Z,12.81
2017-05-27T00:14:36.523Z,12.8
2017-05-27T00:14:41.667Z,12.8
2017-05-27T00:14:46.376Z,12.8
2017-05-27T00:14:50.815Z,12.79
2017-05-27T00:14:55.251Z,12.79
2017-05-27T00:14:59.706Z,12.8
2017-05-27T00:15:03.987Z,12.79
2017-05-27T00:15:08.185Z,12.8
2017-05-27T00:15:12.532Z,12.79
2017-05-27T00:15:16.846Z,12.79
2017-05-27T00:15:21.278Z,12.79
2017-05-27T00:15:25.589Z,12.78
2017-05-27T00:15:29.785Z,12.79
2017-05-27T00:15:34.207Z,12.78
2017-05-27T00:15:38.632Z,12.78
2017-05-27T00:15:42.954Z,12.79
2017-05-27T00:15:47.394Z,12.78
2017-05-27T00:15:51.828Z,12.79
2017-05-27T00:15:56.017Z,12.78
2017-05-27T00:16:00.645Z,12.78
2017-05-27T00:16:04.952Z,12.78
2017-05-27T00:16:09.030Z,12.78
2017-05-27T00:16:13.457Z,12.78
2017-05-27T00:16:17.912Z,12.78
2017-05-27T00:16:22.126Z,12.78
2017-05-27T00:16:26.555Z,12.77
2017-05-27T00:16:30.983Z,12.77
2017-05-27T00:16:35.409Z,12.78
2017-05-27T00:16:39.836Z,12.78
2017-05-27T00:16:44.148Z,12.77
2017-05-27T00:16:48.591Z,12.77
2017-05-27T00:16:52.899Z,12.78
2017-05-27T00:16:57.331Z,12.78
2017-05-27T00:17:01.528Z,12.78
2017-05-27T00:17:06.311Z,12.77
2017-05-27T00:17:11.437Z,12.78
2017-05-27T00:17:18.592Z,12.77
2017-05-27T00:17:23.815Z,12.78
2017-05-27T00:17:30.443Z,12.78
2017-05-27T00:17:36.185Z,12.79
2017-05-27T00:17:42.575Z,12.79
2017-05-27T00:17:47.662Z,12.79
2017-05-27T00:17:53.288Z,12.78
2017-05-27T00:17:58.712Z,12.79
2017-05-27T00:18:04.049Z,12.79
2017-05-27T00:18:09.339Z,12.8
2017-05-27T00:18:15.189Z,12.8
2017-05-27T00:18:20.525Z,12.8
2017-05-27T00:18:26.938Z,12.8
2017-05-27T00:18:31.789Z,12.8
2017-05-27T00:18:36.568Z,12.81
2017-05-27T00:18:41.241Z,12.81
2017-05-27T00:18:45.559Z,12.81
2017-05-27T00:18:50.230Z,12.81
2017-05-27T00:18:54.671Z,12.81
2017-05-27T00:18:58.860Z,12.82
2017-05-27T00:19:03.212Z,12.81
2017-05-27T00:19:07.406Z,12.82
2017-05-27T00:19:11.611Z,12.82
2017-05-27T00:19:16.146Z,12.82
2017-05-27T00:19:20.470Z,12.82
2017-05-27T00:19:24.705Z,12.82
2017-05-27T00:19:29.026Z,12.83
2017-05-27T00:19:33.094Z,12.83
2017-05-27T00:19:37.521Z,12.83
2017-05-27T00:19:41.952Z,12.83
2017-05-27T00:19:46.395Z,12.83
2017-05-27T00:19:50.770Z,12.84
2017-05-27T00:19:54.970Z,12.84
2017-05-27T00:19:59.397Z,12.84
2017-05-27T00:20:03.590Z,12.84
2017-05-27T00:20:07.659Z,12.84
2017-05-27T00:20:11.978Z,12.84
2017-05-27T00:20:16.289Z,12.84
2017-05-27T00:20:20.622Z,12.85
2017-05-27T00:20:24.697Z,12.85
2017-05-27T00:20:29.001Z,12.84
2017-05-27T00:20:33.306Z,12.84
2017-05-27T00:20:37.736Z,12.84
2017-05-27T00:20:42.170Z,12.84
2017-05-27T00:20:46.485Z,12.84
2017-05-27T00:20:50.909Z,12.84
2017-05-27T00:20:55.099Z,12.84
2017-05-27T00:20:59.405Z,12.85
2017-05-27T00:21:03.794Z,12.85
2017-05-27T00:21:07.990Z,12.85
2017-05-27T00:21:12.299Z,12.84
2017-05-27T00:21:16.723Z,12.85
2017-05-27T00:21:21.147Z,12.85
2017-05-27T00:21:25.341Z,12.86
2017-05-27T00:21:29.535Z,12.85
2017-05-27T00:21:33.966Z,12.85
2017-05-27T00:21:38.277Z,12.85
2017-05-27T00:21:42.701Z,12.85
2017-05-27T00:21:47.142Z,12.85
2017-05-27T00:21:51.448Z,12.86
2017-05-27T00:21:55.876Z,12.85
2017-05-27T00:22:00.070Z,12.85
2017-05-27T00:22:04.458Z,12.85
2017-05-27T00:22:08.297Z,12.86
2017-05-27T00:22:12.718Z,12.85
2017-05-27T00:22:16.904Z,12.85
2017-05-27T00:22:21.215Z,12.86
2017-05-27T00:22:25.539Z,12.86
2017-05-27T00:22:30.024Z,12.86
2017-05-27T00:22:34.329Z,12.85
2017-05-27T00:22:38.750Z,12.86
2017-05-27T00:22:43.180Z,12.86
2017-05-27T00:22:47.606Z,12.86
2017-05-27T00:22:51.871Z,12.87
2017-05-27T00:22:56.187Z,12.87
2017-05-27T00:23:00.498Z,12.86
2017-05-27T00:23:04.812Z,12.86
2017-05-27T00:23:09.003Z,12.87
2017-05-27T00:23:13.312Z,12.87
2017-05-27T00:23:17.399Z,12.86
2017-05-27T00:23:21.709Z,12.87
2017-05-27T00:23:25.909Z,12.87
2017-05-27T00:23:30.224Z,12.87
2017-05-27T00:23:34.650Z,12.88
2017-05-27T00:23:38.956Z,12.88
2017-05-27T00:23:43.282Z,12.88
2017-05-27T00:23:47.725Z,12.87
2017-05-27T00:23:51.806Z,12.87
2017-05-27T00:23:56.230Z,12.87
2017-05-27T00:24:00.540Z,12.87
2017-05-27T00:24:05.003Z,12.88
2017-05-27T00:24:08.961Z,12.87
2017-05-27T00:24:13.267Z,12.88
2017-05-27T00:24:17.588Z,12.88
2017-05-27T00:24:21.790Z,12.88
2017-05-27T00:24:25.990Z,12.88
2017-05-27T00:24:30.303Z,12.87
2017-05-27T00:24:34.618Z,12.88
2017-05-27T00:24:39.044Z,12.87
2017-05-27T00:24:43.474Z,12.88
2017-05-27T00:24:47.796Z,12.88
2017-05-27T00:24:52.217Z,12.89
2017-05-27T00:24:56.654Z,12.89
2017-05-27T00:25:00.968Z,12.88
2017-05-27T00:25:05.163Z,12.88
2017-05-27T00:25:09.482Z,12.88
2017-05-27T00:25:13.864Z,12.88
2017-05-27T00:25:18.173Z,12.88
2017-05-27T00:25:22.604Z,12.89
2017-05-27T00:25:26.910Z,12.89
2017-05-27T00:25:31.334Z,12.88
2017-05-27T00:25:35.771Z,12.89
2017-05-27T00:25:40.095Z,12.89
2017-05-27T00:25:44.413Z,12.88
2017-05-27T00:25:48.843Z,12.88
2017-05-27T00:25:53.150Z,12.89
2017-05-27T00:25:57.578Z,12.89
2017-05-27T00:26:02.008Z,12.89
2017-05-27T00:26:06.329Z,12.9
2017-05-27T00:26:10.403Z,12.89
2017-05-27T00:26:14.716Z,12.89
2017-05-27T00:26:19.032Z,12.89
2017-05-27T00:26:23.341Z,12.89
2017-05-27T00:26:27.652Z,12.89
2017-05-27T00:26:31.917Z,12.89
2017-05-27T00:26:36.233Z,12.89
2017-05-27T00:26:40.537Z,12.89
2017-05-27T00:26:44.964Z,12.9
2017-05-27T00:26:49.384Z,12.9
2017-05-27T00:26:53.688Z,12.89
2017-05-27T00:26:58.125Z,12.89
2017-05-27T00:27:02.624Z,12.89
2017-05-27T00:27:06.821Z,12.9
2017-05-27T00:27:11.117Z,12.89
2017-05-27T00:27:17.035Z,12.89
2017-05-27T00:27:22.130Z,12.9
2017-05-27T00:27:27.564Z,12.9
2017-05-27T00:27:32.426Z,12.89
2017-05-27T00:27:37.402Z,12.9
2017-05-27T00:27:42.383Z,12.9
2017-05-27T00:27:47.530Z,12.9
2017-05-27T00:27:53.186Z,12.89
2017-05-27T00:27:57.935Z,12.9
2017-05-27T00:28:03.879Z,12.9
2017-05-27T00:28:08.611Z,12.91
2017-05-27T00:28:13.644Z,12.9
2017-05-27T00:28:19.471Z,12.91
2017-05-27T00:28:25.445Z,12.89
2017-05-27T00:28:31.467Z,12.9
2017-05-27T00:28:36.159Z,12.9
2017-05-27T00:28:41.350Z,12.9
2017-05-27T00:28:45.701Z,12.9
2017-05-27T00:28:50.469Z,12.91
2017-05-27T00:28:56.220Z,12.9
2017-05-27T00:29:01.113Z,12.91
2017-05-27T00:29:06.677Z,12.91
2017-05-27T00:29:12.862Z,12.91
2017-05-27T00:29:17.601Z,12.91
2017-05-27T00:29:22.740Z,12.92
2017-05-27T00:29:27.734Z,12.92
2017-05-27T00:29:32.607Z,12.92
2017-05-27T00:29:37.461Z,12.93
2017-05-27T00:29:42.150Z,12.92
2017-05-27T00:29:47.630Z,12.93
2017-05-27T00:29:52.571Z,12.93
2017-05-27T00:29:58.805Z,12.93
2017-05-27T00:30:04.205Z,12.93
2017-05-27T00:30:09.197Z,12.94
2017-05-27T00:30:13.790Z,12.93
2017-05-27T00:30:18.512Z,12.93
2017-05-27T00:30:22.585Z,12.94
2017-05-27T00:30:26.663Z,12.94
2017-05-27T00:30:31.463Z,12.94
2017-05-27T00:30:37.316Z,12.94
2017-05-27T00:30:42.658Z,12.94
2017-05-27T00:30:47.604Z,12.94
2017-05-27T00:30:52.227Z,12.94
2017-05-27T00:30:58.699Z,12.94
2017-05-27T00:31:04.071Z,12.94
2017-05-27T00:31:09.664Z,12.95
2017-05-27T00:31:15.425Z,12.94
2017-05-27T00:31:21.500Z,12.94
2017-05-27T00:31:25.834Z,12.94
2017-05-27T00:31:30.261Z,12.94
2017-05-27T00:31:34.463Z,12.93
2017-05-27T00:31:38.896Z,12.94
2017-05-27T00:31:43.676Z,12.95
2017-05-27T00:31:48.626Z,12.94
2017-05-27T00:31:53.761Z,12.93
2017-05-27T00:32:00.626Z,12.94
2017-05-27T00:32:05.465Z,12.94
2017-05-27T00:32:10.487Z,12.94
2017-05-27T00:32:16.243Z,12.94
2017-05-27T00:32:21.397Z,12.94
2017-05-27T00:32:26.740Z,12.94
2017-05-27T00:32:31.569Z,12.94
2017-05-27T00:32:37.371Z,12.94
2017-05-27T00:32:42.270Z,12.94
2017-05-27T00:32:48.917Z,12.94
2017-05-27T00:32:54.079Z,12.94
2017-05-27T00:32:59.021Z,12.94
2017-05-27T00:33:03.569Z,12.95
2017-05-27T00:33:09.506Z,12.95
2017-05-27T00:33:14.261Z,12.95
2017-05-27T00:33:19.742Z,12.95
2017-05-27T00:33:24.288Z,12.94
2017-05-27T00:33:29.086Z,12.95
2017-05-27T00:33:35.294Z,12.94
2017-05-27T00:33:40.519Z,12.95
2017-05-27T00:33:46.016Z,12.96
2017-05-27T00:33:52.075Z,12.96
2017-05-27T00:33:56.570Z,12.95
2017-05-27T00:34:01.268Z,12.96
2017-05-27T00:34:05.925Z,12.96
2017-05-27T00:34:10.721Z,12.96
2017-05-27T00:34:16.377Z,12.97
2017-05-27T00:34:20.981Z,12.96
2017-05-27T00:34:25.289Z,12.97
2017-05-27T00:34:29.484Z,12.96
2017-05-27T00:34:33.794Z,12.97
2017-05-27T00:34:38.713Z,12.97
2017-05-27T00:34:43.406Z,12.97
2017-05-27T00:34:49.013Z,12.98
2017-05-27T00:34:54.192Z,12.98
2017-05-27T00:34:59.407Z,12.97
2017-05-27T00:35:04.402Z,12.99
2017-05-27T00:35:09.131Z,12.98
2017-05-27T00:35:13.766Z,12.98
2017-05-27T00:35:19.717Z,12.99
2017-05-27T00:35:25.770Z,12.99
2017-05-27T00:35:30.252Z,12.99
2017-05-27T00:35:35.081Z,12.99
2017-05-27T00:35:39.903Z,13
2017-05-27T00:35:44.858Z,13
2017-05-27T00:35:50.096Z,13
2017-05-27T00:35:55.514Z,13.01
2017-05-27T00:36:00.515Z,13
2017-05-27T00:36:05.703Z,13.02
2017-05-27T00:36:10.908Z,13.01
2017-05-27T00:36:15.342Z,13.02
2017-05-27T00:36:19.539Z,13.01
2017-05-27T00:36:24.297Z,13.02
2017-05-27T00:36:29.285Z,13.03
2017-05-27T00:36:34.313Z,13.03
2017-05-27T00:36:40.195Z,13.02
2017-05-27T00:36:45.082Z,13.03
2017-05-27T00:36:50.157Z,13.04
2017-05-27T00:36:54.715Z,13.04
2017-05-27T00:36:59.920Z,13.04
2017-05-27T00:37:04.893Z,13.05
2017-05-27T00:37:09.143Z,13.04
2017-05-27T00:37:14.325Z,13.05
2017-05-27T00:37:19.781Z,13.05
2017-05-27T00:37:24.293Z,13.06
2017-05-27T00:37:30.096Z,13.06
2017-05-27T00:37:35.455Z,13.07
2017-05-27T00:37:40.463Z,13.07
2017-05-27T00:37:46.958Z,13.08
2017-05-27T00:37:52.546Z,13.08
2017-05-27T00:37:57.746Z,13.09
2017-05-27T00:38:02.973Z,13.1
2017-05-27T00:38:09.103Z,13.09
2017-05-27T00:38:13.797Z,13.1
2017-05-27T00:38:20.009Z,13.1
2017-05-27T00:38:25.414Z,13.1
2017-05-27T00:38:30.797Z,13.11
2017-05-27T00:38:35.476Z,13.12
2017-05-27T00:38:40.461Z,13.12
2017-05-27T00:38:45.607Z,13.12
2017-05-27T00:38:51.056Z,13.12
2017-05-27T00:38:56.604Z,13.13
2017-05-27T00:39:01.985Z,13.13
2017-05-27T00:39:07.012Z,13.14
2017-05-27T00:39:11.836Z,13.14
2017-05-27T00:39:18.398Z,13.15
2017-05-27T00:39:23.362Z,13.16
2017-05-27T00:39:29.660Z,13.17
2017-05-27T00:39:34.758Z,13.17
2017-05-27T00:39:39.551Z,13.17
2017-05-27T00:39:44.339Z,13.18
2017-05-27T00:39:49.359Z,13.18
2017-05-27T00:39:54.149Z,13.19
2017-05-27T00:39:58.841Z,13.19
2017-05-27T00:40:04.590Z,13.19
2017-05-27T00:40:10.801Z,13.2
2017-05-27T00:40:15.867Z,13.2
2017-05-27T00:40:20.656Z,13.2
2017-05-27T00:40:26.352Z,13.2
2017-05-27T00:40:32.765Z,13.2
2017-05-27T00:40:37.980Z,13.21
2017-05-27T00:40:42.871Z,13.22
2017-05-27T00:40:47.214Z,13.22
2017-05-27T00:40:51.522Z,13.23
2017-05-27T00:40:55.826Z,13.22
2017-05-27T00:41:00.137Z,13.22
2017-05-27T00:41:04.512Z,13.22
2017-05-27T00:41:09.603Z,13.23
2017-05-27T00:41:14.681Z,13.23
2017-05-27T00:41:19.343Z,13.23
2017-05-27T00:41:25.245Z,13.23
2017-05-27T00:41:30.268Z,13.24
2017-05-27T00:41:35.127Z,13.24
2017-05-27T00:41:40.681Z,13.24
2017-05-27T00:41:45.307Z,13.24
2017-05-27T00:41:50.655Z,13.23
2017-05-27T00:41:55.983Z,13.24
2017-05-27T00:42:00.469Z,13.24
2017-05-27T00:42:05.247Z,13.24
2017-05-27T00:42:10.069Z,13.24
2017-05-27T00:42:16.533Z,13.25
2017-05-27T00:42:21.678Z,13.25
2017-05-27T00:42:26.404Z,13.25
2017-05-27T00:42:30.601Z,13.24
2017-05-27T00:42:34.985Z,13.24
2017-05-27T00:42:39.430Z,13.25
2017-05-27T00:42:43.627Z,13.25
2017-05-27T00:42:47.942Z,13.25
2017-05-27T00:42:52.480Z,13.25
2017-05-27T00:42:57.907Z,13.24
2017-05-27T00:43:03.308Z,13.25
2017-05-27T00:43:08.413Z,13.25
2017-05-27T00:43:12.976Z,13.25
2017-05-27T00:43:18.157Z,13.25
2017-05-27T00:43:22.910Z,13.25
2017-05-27T00:43:28.346Z,13.24
2017-05-27T00:43:33.403Z,13.26
2017-05-27T00:43:38.308Z,13.25
2017-05-27T00:43:43.294Z,13.25
2017-05-27T00:43:48.296Z,13.25
2017-05-27T00:43:54.493Z,13.26
2017-05-27T00:43:59.800Z,13.25
2017-05-27T00:44:05.003Z,13.25
2017-05-27T00:44:09.360Z,13.25
2017-05-27T00:44:14.829Z,13.25
2017-05-27T00:44:20.185Z,13.26
2017-05-27T00:44:25.415Z,13.26
2017-05-27T00:44:30.554Z,13.25
2017-05-27T00:44:36.832Z,13.26
2017-05-27T00:44:41.526Z,13.25
2017-05-27T00:44:46.311Z,13.25
2017-05-27T00:44:52.664Z,13.26
2017-05-27T00:44:58.929Z,13.26
2017-05-27T00:45:03.888Z,13.26
2017-05-27T00:45:08.923Z,13.26
2017-05-27T00:45:13.504Z,13.26
2017-05-27T00:45:18.854Z,13.26
2017-05-27T00:45:24.704Z,13.26
2017-05-27T00:45:29.461Z,13.26
2017-05-27T00:45:33.774Z,13.26
2017-05-27T00:45:38.086Z,13.26
2017-05-27T00:45:42.521Z,13.26
2017-05-27T00:45:47.204Z,13.26
2017-05-27T00:45:51.619Z,13.26
2017-05-27T00:45:56.366Z,13.26
2017-05-27T00:46:02.282Z,13.27
2017-05-27T00:46:06.708Z,13.27
2017-05-27T00:46:11.933Z,13.27
2017-05-27T00:46:16.994Z,13.27
2017-05-27T00:46:22.987Z,13.27
2017-05-27T00:46:27.870Z,13.27
2017-05-27T00:46:33.087Z,13.27
2017-05-27T00:46:38.681Z,13.27
2017-05-27T00:46:43.564Z,13.28
2017-05-27T00:46:47.881Z,13.27
2017-05-27T00:46:51.951Z,13.28
2017-05-27T00:46:56.268Z,13.28
2017-05-27T00:47:00.762Z,13.28
2017-05-27T00:47:05.442Z,13.28
2017-05-27T00:47:10.463Z,13.28
2017-05-27T00:47:15.585Z,13.29
2017-05-27T00:47:20.134Z,13.29
2017-05-27T00:47:24.930Z,13.29
2017-05-27T00:47:30.367Z,13.29
2017-05-27T00:47:36.425Z,13.29
2017-05-27T00:47:41.335Z,13.29
2017-05-27T00:47:46.288Z,13.3
2017-05-27T00:47:51.017Z,13.3
2017-05-27T00:47:56.764Z,13.29
2017-05-27T00:48:01.597Z,13.29
2017-05-27T00:48:07.161Z,13.3
2017-05-27T00:48:12.250Z,13.3
2017-05-27T00:48:17.085Z,13.3
2017-05-27T00:48:22.725Z,13.3
2017-05-27T00:48:27.471Z,13.3
2017-05-27T00:48:31.866Z,13.3
2017-05-27T00:48:37.110Z,13.31
2017-05-27T00:48:42.747Z,13.31
2017-05-27T00:48:48.093Z,13.31
2017-05-27T00:48:53.295Z,13.32
2017-05-27T00:48:58.072Z,13.31
2017-05-27T00:49:03.165Z,13.31
2017-05-27T00:49:07.687Z,13.31
2017-05-27T00:49:12.619Z,13.31
2017-05-27T00:49:17.338Z,13.32
2017-05-27T00:49:22.380Z,13.32
2017-05-27T00:49:26.988Z,13.32
2017-05-27T00:49:32.061Z,13.31
2017-05-27T00:49:36.211Z,13.33
2017-05-27T00:49:41.217Z,13.32
2017-05-27T00:49:46.607Z,13.32
2017-05-27T00:49:52.612Z,13.32
2017-05-27T00:49:57.494Z,13.33
2017-05-27T00:50:02.996Z,13.33
2017-05-27T00:50:08.675Z,13.33
2017-05-27T00:50:14.500Z,13.33
2017-05-27T00:50:19.132Z,13.33
2017-05-27T00:50:24.280Z,13.33
2017-05-27T00:50:29.629Z,13.33
2017-05-27T00:50:34.658Z,13.34
2017-05-27T00:50:40.000Z,13.34
2017-05-27T00:50:45.256Z,13.33
2017-05-27T00:50:50.186Z,13.34
2017-05-27T00:50:55.122Z,13.33
2017-05-27T00:50:59.975Z,13.34
2017-05-27T00:51:05.657Z,13.34
2017-05-27T00:51:10.277Z,13.34
2017-05-27T00:51:14.905Z,13.33
2017-05-27T00:51:20.827Z,13.34
2017-05-27T00:51:26.336Z,13.34
2017-05-27T00:51:31.693Z,13.35
2017-05-27T00:51:36.667Z,13.34
2017-05-27T00:51:41.552Z,13.35
2017-05-27T00:51:46.380Z,13.35
2017-05-27T00:51:51.204Z,13.35
2017-05-27T00:51:56.950Z,13.34
2017-05-27T00:52:02.151Z,13.35
2017-05-27T00:52:08.177Z,13.35
2017-05-27T00:52:13.528Z,13.34
2017-05-27T00:52:19.128Z,13.35
2017-05-27T00:52:23.761Z,13.35
2017-05-27T00:52:28.851Z,13.36
2017-05-27T00:52:34.338Z,13.35
2017-05-27T00:52:42.447Z,13.36
2017-05-27T00:52:47.544Z,13.35
2017-05-27T00:52:53.413Z,13.36
2017-05-27T00:52:58.458Z,13.36
2017-05-27T00:53:03.284Z,13.36
2017-05-27T00:53:07.967Z,13.36
2017-05-27T00:53:13.081Z,13.36
2017-05-27T00:53:17.942Z,13.36
2017-05-27T00:53:22.726Z,13.36
2017-05-27T00:53:27.731Z,13.36
2017-05-27T00:53:32.923Z,13.36
2017-05-27T00:53:38.331Z,13.37
2017-05-27T00:53:43.272Z,13.36
2017-05-27T00:53:48.715Z,13.36
2017-05-27T00:53:53.664Z,13.35
2017-05-27T00:53:58.883Z,13.35
2017-05-27T00:54:03.686Z,13.36
2017-05-27T00:54:09.802Z,13.36
2017-05-27T00:54:15.235Z,13.36
2017-05-27T00:54:20.267Z,13.37
2017-05-27T00:54:25.526Z,13.35
2017-05-27T00:54:30.025Z,13.36
2017-05-27T00:54:34.780Z,13.35
2017-05-27T00:54:39.205Z,13.36
2017-05-27T00:54:44.153Z,13.35
2017-05-27T00:54:48.856Z,13.36
2017-05-27T00:54:53.296Z,13.35
2017-05-27T00:54:57.637Z,13.35
2017-05-27T00:55:02.231Z,13.36
2017-05-27T00:55:06.446Z,13.35
2017-05-27T00:55:11.109Z,13.35
2017-05-27T00:55:15.902Z,13.34
2017-05-27T00:55:21.354Z,13.35
2017-05-27T00:55:25.723Z,13.35
2017-05-27T00:55:30.765Z,13.35
2017-05-27T00:55:36.119Z,13.34
2017-05-27T00:55:41.193Z,13.35
2017-05-27T00:55:46.162Z,13.34
2017-05-27T00:55:51.765Z,13.34
2017-05-27T00:55:57.007Z,13.33
2017-05-27T00:56:01.819Z,13.33
2017-05-27T00:56:06.893Z,13.33
2017-05-27T00:56:11.837Z,13.32
2017-05-27T00:56:16.712Z,13.33
2017-05-27T00:56:22.206Z,13.33
2017-05-27T00:56:26.579Z,13.32
2017-05-27T00:56:32.792Z,13.32
2017-05-27T00:56:37.561Z,13.32
2017-05-27T00:56:42.636Z,13.32
2017-05-27T00:56:47.644Z,13.31
2017-05-27T00:56:52.749Z,13.32
2017-05-27T00:56:58.622Z,13.31
2017-05-27T00:57:04.656Z,13.31
2017-05-27T00:57:09.915Z,13.31
2017-05-27T00:57:14.339Z,13.3
2017-05-27T00:57:19.379Z,13.3
2017-05-27T00:57:24.217Z,13.3
2017-05-27T00:57:29.371Z,13.3
2017-05-27T00:57:34.637Z,13.29
2017-05-27T00:57:39.375Z,13.29
2017-05-27T00:57:45.654Z,13.28
2017-05-27T00:57:50.313Z,13.28
2017-05-27T00:57:55.730Z,13.28
2017-05-27T00:58:00.919Z,13.28
2017-05-27T00:58:06.215Z,13.27
2017-05-27T00:58:10.457Z,13.27
2017-05-27T00:58:15.985Z,13.27
2017-05-27T00:58:21.220Z,13.27
2017-05-27T00:58:27.152Z,13.26
2017-05-27T00:58:31.728Z,13.25
2017-05-27T00:58:37.137Z,13.25
2017-05-27T00:58:42.416Z,13.25
2017-05-27T00:58:48.031Z,13.24
2017-05-27T00:58:53.228Z,13.24
2017-05-27T00:58:57.905Z,13.24
2017-05-27T00:59:02.216Z,13.24
2017-05-27T00:59:07.511Z,13.24
2017-05-27T00:59:13.290Z,13.24
2017-05-27T00:59:19.103Z,13.24
2017-05-27T00:59:24.387Z,13.23
2017-05-27T00:59:29.376Z,13.23
2017-05-27T00:59:34.377Z,13.22
2017-05-27T00:59:38.840Z,13.21
2017-05-27T00:59:43.636Z,13.2
2017-05-27T00:59:48.383Z,13.2
2017-05-27T00:59:54.236Z,13.21
2017-05-27T00:59:59.527Z,13.2
2017-05-27T01:00:06.356Z,13.2
2017-05-27T01:00:11.558Z,13.19
2017-05-27T01:00:17.135Z,13.18
2017-05-27T01:00:22.091Z,13.18
2017-05-27T01:00:28.697Z,13.17
2017-05-27T01:00:34.541Z,13.17
2017-05-27T01:00:40.372Z,13.17
2017-05-27T01:00:45.071Z,13.16
2017-05-27T01:00:50.286Z,13.16
2017-05-27T01:00:55.835Z,13.16
2017-05-27T01:01:00.879Z,13.16
2017-05-27T01:01:05.922Z,13.15
2017-05-27T01:01:11.604Z,13.15
2017-05-27T01:01:16.023Z,13.14
2017-05-27T01:01:21.326Z,13.13
2017-05-27T01:01:26.335Z,13.13
2017-05-27T01:01:31.690Z,13.13
2017-05-27T01:01:37.027Z,13.13
2017-05-27T01:01:42.375Z,13.12
2017-05-27T01:01:48.235Z,13.12
2017-05-27T01:01:53.394Z,13.12
2017-05-27T01:02:00.211Z,13.12
2017-05-27T01:02:05.892Z,13.12
2017-05-27T01:02:11.035Z,13.11
2017-05-27T01:02:16.472Z,13.1
2017-05-27T01:02:21.702Z,13.1
2017-05-27T01:02:26.341Z,13.11
2017-05-27T01:02:31.474Z,13.1
2017-05-27T01:02:36.216Z,13.1
2017-05-27T01:02:40.649Z,13.1
2017-05-27T01:02:45.079Z,13.1
2017-05-27T01:02:49.388Z,13.1
2017-05-27T01:02:54.351Z,13.09
2017-05-27T01:02:59.302Z,13.09
2017-05-27T01:03:03.928Z,13.08
2017-05-27T01:03:08.543Z,13.08
2017-05-27T01:03:13.378Z,13.08
2017-05-27T01:03:18.242Z,13.08
2017-05-27T01:03:23.136Z,13.07
2017-05-27T01:03:28.625Z,13.07
2017-05-27T01:03:35.933Z,13.06